Terminal Aerodrome Forecast
Issued by NWS

Home | Current Version | Previous Version | Graphics & Text | Print | Product List | Glossary On
Versions: 1 2 3 4 5 6 7 8 9 10 11 12 13 14 15 16 17 18 19
000
FTUS43 KICT 270858 AAA
TAFHUT
TAF AMD
KHUT 270858Z 2709/2806 20011KT P6SM VCTS SCT020 BKN050CB
      TEMPO 2710/2711 VRB15G25KT 4SM TSRA OVC020CB
     FM271100 24012KT P6SM VCSH SCT012 BKN025
     FM271500 29015KT P6SM SCT020 BKN035=

USA.gov is the U.S. government's official web portal to all federal, state and local government web resources and services.